createdAt,value
2024-01-06T00:00:50.813Z,7.44
2024-01-06T00:03:21.754Z,7.39
2024-01-06T00:05:52.622Z,7.31
2024-01-06T00:08:23.574Z,7.20
2024-01-06T00:10:58.546Z,7.11
2024-01-06T00:13:29.418Z,7.03
2024-01-06T00:16:00.532Z,7.02
2024-01-06T00:18:31.392Z,7.08
2024-01-06T00:21:02.472Z,7.14
2024-01-06T00:23:33.319Z,7.16
2024-01-06T00:26:08.085Z,7.20
2024-01-06T00:28:39.005Z,7.18
2024-01-06T00:31:10.238Z,7.22
2024-01-06T00:33:41.068Z,7.19
2024-01-06T00:36:12.717Z,7.18
2024-01-06T00:38:43.412Z,7.18
2024-01-06T00:41:16.826Z,7.13
2024-01-06T00:43:47.676Z,7.19
2024-01-06T00:46:18.624Z,7.22
2024-01-06T00:48:49.520Z,7.22
2024-01-06T00:51:20.364Z,7.26
2024-01-06T00:53:51.261Z,7.31
2024-01-06T00:56:24.500Z,7.38
2024-01-06T00:58:55.271Z,7.42
2024-01-06T01:01:26.024Z,7.45
2024-01-06T01:03:54.289Z,7.51
2024-01-06T01:06:25.165Z,7.55
2024-01-06T01:08:55.954Z,7.60
2024-01-06T01:11:29.314Z,7.64
2024-01-06T01:14:00.076Z,7.66
2024-01-06T01:16:31.076Z,7.66
2024-01-06T01:19:03.518Z,7.65
2024-01-06T01:21:34.382Z,7.61
2024-01-06T01:24:05.173Z,7.60
2024-01-06T01:26:38.568Z,7.62
2024-01-06T01:29:09.318Z,7.66
2024-01-06T01:31:40.089Z,7.69
2024-01-06T01:34:11.042Z,7.75
2024-01-06T01:36:42.084Z,7.81
2024-01-06T01:39:12.879Z,7.87
2024-01-06T01:41:46.553Z,7.90
2024-01-06T01:44:17.292Z,7.95
2024-01-06T01:46:48.294Z,7.97
2024-01-06T01:49:19.843Z,8.00
2024-01-06T01:51:50.869Z,8.02
2024-01-06T01:54:21.746Z,8.02
2024-01-06T01:56:55.430Z,8.02
2024-01-06T01:59:26.205Z,8.04
2024-01-06T02:01:57.072Z,8.06
2024-01-06T02:04:27.771Z,8.02
2024-01-06T02:06:59.341Z,7.94
2024-01-06T02:09:31.093Z,7.80
2024-01-06T02:12:04.462Z,7.69
2024-01-06T02:14:35.294Z,7.64
2024-01-06T02:17:06.078Z,7.66
2024-01-06T02:19:36.911Z,7.66
2024-01-06T02:22:10.469Z,7.59
2024-01-06T02:24:41.210Z,7.53
2024-01-06T02:27:11.951Z,7.41
2024-01-06T02:29:42.654Z,7.35
2024-01-06T02:32:13.362Z,7.18
2024-01-06T02:34:44.145Z,7.01
2024-01-06T02:37:17.553Z,6.86
2024-01-06T02:39:48.371Z,6.76
2024-01-06T02:42:19.259Z,6.80
2024-01-06T02:44:50.222Z,6.86
2024-01-06T02:47:21.315Z,6.93
2024-01-06T02:49:52.193Z,7.00
2024-01-06T02:52:26.017Z,7.13
2024-01-06T02:54:56.824Z,7.18
2024-01-06T02:57:27.561Z,7.19
2024-01-06T02:59:58.317Z,7.18
2024-01-06T03:02:29.031Z,7.11
2024-01-06T03:04:59.796Z,7.07
2024-01-06T03:07:36.117Z,7.07
2024-01-06T03:10:07.172Z,7.05
2024-01-06T03:12:38.059Z,7.08
2024-01-06T03:15:09.752Z,7.12
2024-01-06T03:17:40.512Z,7.15
2024-01-06T03:20:12.487Z,7.21
2024-01-06T03:22:45.694Z,7.25
2024-01-06T03:25:16.313Z,7.10
2024-01-06T03:27:48.469Z,7.03
2024-01-06T03:30:19.319Z,7.04
2024-01-06T03:32:50.168Z,7.00
2024-01-06T03:35:20.867Z,6.86
2024-01-06T03:37:54.202Z,6.62
2024-01-06T03:40:24.991Z,6.45
2024-01-06T03:42:55.736Z,6.57
2024-01-06T03:45:26.511Z,6.73
2024-01-06T03:47:57.262Z,6.91
2024-01-06T03:50:27.982Z,7.11
2024-01-06T03:53:01.240Z,7.28
2024-01-06T03:55:32.320Z,7.43
2024-01-06T03:58:02.987Z,7.58
2024-01-06T04:00:33.771Z,7.70
2024-01-06T04:03:04.467Z,7.83
2024-01-06T04:05:35.208Z,7.93
2024-01-06T04:08:09.550Z,8.05
2024-01-06T04:10:41.179Z,8.16
2024-01-06T04:13:12.142Z,8.29
2024-01-06T04:15:43.253Z,8.41
2024-01-06T04:18:14.118Z,8.51
2024-01-06T04:20:44.852Z,8.61
2024-01-06T04:23:18.252Z,8.71
2024-01-06T04:25:49.048Z,8.77
2024-01-06T04:28:19.908Z,8.85
2024-01-06T04:30:50.670Z,8.89
2024-01-06T04:33:21.685Z,8.94
2024-01-06T04:35:52.416Z,8.97
2024-01-06T04:38:25.789Z,9.01
2024-01-06T04:40:56.449Z,9.05
2024-01-06T04:43:27.228Z,9.07
2024-01-06T04:45:58.961Z,9.09
2024-01-06T04:48:29.873Z,9.10
2024-01-06T04:51:00.760Z,9.11
2024-01-06T04:53:34.242Z,9.13
2024-01-06T04:56:04.984Z,9.13
2024-01-06T04:58:36.323Z,9.13
2024-01-06T05:01:07.695Z,9.12
2024-01-06T05:03:38.574Z,9.12
2024-01-06T05:06:09.567Z,9.12
2024-01-06T05:08:46.287Z,9.12
2024-01-06T05:11:17.522Z,9.11
2024-01-06T05:13:48.160Z,9.11
2024-01-06T05:16:18.821Z,9.10
2024-01-06T05:18:49.909Z,9.05
2024-01-06T05:21:20.785Z,9.02
2024-01-06T05:23:54.089Z,8.95
2024-01-06T05:26:24.864Z,8.92
2024-01-06T05:28:56.522Z,8.89
2024-01-06T05:31:27.924Z,8.91
2024-01-06T05:33:58.766Z,8.91
2024-01-06T05:36:29.509Z,8.95
2024-01-06T05:39:02.909Z,8.95
2024-01-06T05:41:33.665Z,9.00
2024-01-06T05:44:04.522Z,9.02
2024-01-06T05:46:35.237Z,9.08
2024-01-06T05:49:06.117Z,9.11
2024-01-06T05:51:36.883Z,9.15
2024-01-06T05:54:10.326Z,9.15
2024-01-06T05:56:41.058Z,9.19
2024-01-06T05:59:11.931Z,9.22
2024-01-06T06:01:42.671Z,9.26
2024-01-06T06:04:13.609Z,9.32
2024-01-06T06:06:44.461Z,9.35
2024-01-06T06:09:17.949Z,9.24
2024-01-06T06:11:48.610Z,9.03
2024-01-06T06:14:19.292Z,9.01
2024-01-06T06:16:50.099Z,8.98
2024-01-06T06:19:21.735Z,9.04
2024-01-06T06:21:52.769Z,9.10
2024-01-06T06:24:26.275Z,9.21
2024-01-06T06:26:57.023Z,9.24
2024-01-06T06:29:27.713Z,9.18
2024-01-06T06:31:58.366Z,9.21
2024-01-06T06:34:29.125Z,9.25
2024-01-06T06:37:00.265Z,9.32
2024-01-06T06:39:33.746Z,9.40
2024-01-06T06:42:04.487Z,9.50
2024-01-06T06:44:35.412Z,9.58
2024-01-06T06:47:06.114Z,9.53
2024-01-06T06:49:36.816Z,9.54
2024-01-06T06:52:08.560Z,9.63
2024-01-06T06:54:42.032Z,9.71
2024-01-06T06:57:13.263Z,9.80
2024-01-06T06:59:44.039Z,9.89
2024-01-06T07:02:15.065Z,9.95
2024-01-06T07:04:46.487Z,9.90
2024-01-06T07:07:17.105Z,9.87
2024-01-06T07:09:50.396Z,9.90
2024-01-06T07:12:24.139Z,9.94
2024-01-06T07:14:54.890Z,10.00
2024-01-06T07:17:25.553Z,10.02
2024-01-06T07:19:56.727Z,10.06
2024-01-06T07:22:27.622Z,10.01
2024-01-06T07:25:01.114Z,10.03
2024-01-06T07:27:31.754Z,10.04
2024-01-06T07:30:02.556Z,9.98
2024-01-06T07:32:36.300Z,9.99
2024-01-06T07:35:08.323Z,9.97
2024-01-06T07:37:39.336Z,9.91
2024-01-06T07:40:14.647Z,9.96
2024-01-06T07:42:45.280Z,9.89
2024-01-06T07:45:16.494Z,9.87
2024-01-06T07:47:47.310Z,9.88
2024-01-06T07:50:17.985Z,9.94
2024-01-06T07:52:48.681Z,9.99
2024-01-06T07:55:22.255Z,9.94
2024-01-06T07:57:53.081Z,9.89
2024-01-06T08:00:24.421Z,9.94
2024-01-06T08:02:55.922Z,9.97
2024-01-06T08:05:26.608Z,10.02
2024-01-06T08:07:57.321Z,9.95
2024-01-06T08:10:31.038Z,9.92
2024-01-06T08:13:01.883Z,9.89
2024-01-06T08:15:33.891Z,9.87
2024-01-06T08:18:04.847Z,9.90
2024-01-06T08:20:35.751Z,9.94
2024-01-06T08:23:06.555Z,9.98
2024-01-06T08:25:39.920Z,10.05
2024-01-06T08:28:10.775Z,10.10
2024-01-06T08:30:41.892Z,10.17
2024-01-06T08:33:12.959Z,10.11
2024-01-06T08:35:43.734Z,10.05
2024-01-06T08:38:14.576Z,10.08
2024-01-06T08:40:49.520Z,10.02
2024-01-06T08:43:20.280Z,10.06
2024-01-06T08:45:52.329Z,10.07
2024-01-06T08:48:24.032Z,10.04
2024-01-06T08:50:54.915Z,10.11
2024-01-06T08:53:25.535Z,10.11
2024-01-06T08:55:59.008Z,10.17
2024-01-06T08:58:29.713Z,10.25
2024-01-06T09:01:01.310Z,10.32
2024-01-06T09:03:32.213Z,10.42
2024-01-06T09:06:03.321Z,10.40
2024-01-06T09:08:34.078Z,10.28
2024-01-06T09:11:07.819Z,10.34
2024-01-06T09:13:38.835Z,10.37
2024-01-06T09:16:09.652Z,10.09
2024-01-06T09:18:40.793Z,9.56
2024-01-06T09:21:11.522Z,9.08
2024-01-06T09:23:42.305Z,8.85
2024-01-06T09:26:17.778Z,8.81
2024-01-06T09:28:48.218Z,8.87
2024-01-06T09:31:18.965Z,8.90
2024-01-06T09:33:51.280Z,9.05
2024-01-06T09:36:22.377Z,9.25
2024-01-06T09:38:53.202Z,9.42
2024-01-06T09:41:26.813Z,9.54
2024-01-06T09:43:57.969Z,9.64
2024-01-06T09:46:31.061Z,9.69
2024-01-06T09:49:02.496Z,9.77
2024-01-06T09:51:33.300Z,9.84
2024-01-06T09:54:06.218Z,9.89
2024-01-06T09:56:39.671Z,9.92
2024-01-06T09:59:10.385Z,9.98
2024-01-06T10:01:41.114Z,10.04
2024-01-06T10:04:13.607Z,10.08
2024-01-06T10:06:46.353Z,10.32
2024-01-06T10:09:17.236Z,10.59
2024-01-06T10:11:50.783Z,10.69
2024-01-06T10:14:21.425Z,10.68
2024-01-06T10:16:52.666Z,10.84
2024-01-06T10:19:23.997Z,11.02
2024-01-06T10:21:54.862Z,11.22
2024-01-06T10:24:25.603Z,11.41
2024-01-06T10:26:59.081Z,11.61
2024-01-06T10:29:30.642Z,11.80
2024-01-06T10:32:02.404Z,11.97
2024-01-06T10:34:34.174Z,12.12
2024-01-06T10:37:07.441Z,12.23
2024-01-06T10:39:38.894Z,12.35
2024-01-06T10:42:13.781Z,12.43
2024-01-06T10:44:47.708Z,12.49
2024-01-06T10:47:21.215Z,12.54
2024-01-06T10:49:58.197Z,12.57
2024-01-06T10:52:31.791Z,12.58
2024-01-06T10:55:04.185Z,12.62
2024-01-06T10:57:38.732Z,12.62
2024-01-06T11:00:11.405Z,12.64
2024-01-06T11:02:43.550Z,12.64
2024-01-06T11:05:15.061Z,12.64
2024-01-06T11:07:48.615Z,12.64
2024-01-06T11:10:21.648Z,12.64
2024-01-06T11:13:14.372Z,12.59
2024-01-06T11:15:47.085Z,12.53
2024-01-06T11:18:37.290Z,12.46
2024-01-06T11:21:26.789Z,12.36
2024-01-06T11:24:19.388Z,12.28
2024-01-06T11:26:53.585Z,12.25
2024-01-06T11:29:27.343Z,12.15
2024-01-06T11:32:24.136Z,11.86
2024-01-06T11:34:56.567Z,11.54
2024-01-06T11:37:29.263Z,11.29
2024-01-06T11:40:00.212Z,11.23
2024-01-06T11:42:37.095Z,11.28
2024-01-06T11:45:11.544Z,11.38
2024-01-06T11:47:43.869Z,11.46
2024-01-06T11:50:14.640Z,11.33
2024-01-06T11:52:45.681Z,11.22
2024-01-06T11:55:16.943Z,11.27
2024-01-06T11:57:48.584Z,11.31
2024-01-06T12:00:22.868Z,11.40
2024-01-06T12:02:53.695Z,11.44
2024-01-06T12:05:26.310Z,11.49
2024-01-06T12:07:58.840Z,11.50
2024-01-06T12:10:31.699Z,11.55
2024-01-06T12:13:03.824Z,11.56
2024-01-06T12:15:38.997Z,11.57
2024-01-06T12:18:11.644Z,11.59
2024-01-06T12:20:43.591Z,11.60
2024-01-06T12:23:17.261Z,11.50
2024-01-06T12:25:51.159Z,11.47
2024-01-06T12:28:21.994Z,11.46
2024-01-06T12:30:55.693Z,11.47
2024-01-06T12:33:26.726Z,11.46
2024-01-06T12:35:57.736Z,11.32
2024-01-06T12:38:29.428Z,11.25
2024-01-06T12:41:00.564Z,11.25
2024-01-06T12:43:31.551Z,11.30
2024-01-06T12:46:05.049Z,11.35
2024-01-06T12:48:35.949Z,11.41
2024-01-06T12:51:07.101Z,11.44
2024-01-06T12:53:37.862Z,11.40
2024-01-06T12:56:09.817Z,11.41
2024-01-06T12:58:40.560Z,11.35
2024-01-06T13:01:14.433Z,11.40
2024-01-06T13:03:45.409Z,11.37
2024-01-06T13:06:17.462Z,11.37
2024-01-06T13:08:48.897Z,11.40
2024-01-06T13:11:19.622Z,11.27
2024-01-06T13:13:50.368Z,11.29
2024-01-06T13:16:23.936Z,11.35
2024-01-06T13:18:55.870Z,11.42
2024-01-06T13:21:26.871Z,11.48
2024-01-06T13:24:02.457Z,11.47
2024-01-06T13:26:33.332Z,11.46
2024-01-06T13:29:03.019Z,11.30
2024-01-06T13:31:38.456Z,10.76
2024-01-06T13:34:08.959Z,10.13
2024-01-06T13:36:39.779Z,9.72
2024-01-06T13:39:18.664Z,9.48
2024-01-06T13:41:49.472Z,9.41
2024-01-06T13:44:20.373Z,9.37
2024-01-06T13:46:56.142Z,9.41
2024-01-06T13:49:29.601Z,9.47
2024-01-06T13:52:00.858Z,9.52
2024-01-06T13:54:31.766Z,9.57
2024-01-06T13:57:02.726Z,9.57
2024-01-06T13:59:33.349Z,9.57
2024-01-06T14:02:07.501Z,9.57
2024-01-06T14:04:38.593Z,9.53
2024-01-06T14:07:09.818Z,9.55
2024-01-06T14:09:40.743Z,9.57
2024-01-06T14:12:11.586Z,9.54
2024-01-06T14:14:43.059Z,9.50
2024-01-06T14:17:16.555Z,9.49
2024-01-06T14:19:48.383Z,9.46
2024-01-06T14:22:19.320Z,9.42
2024-01-06T14:24:51.245Z,9.39
2024-01-06T14:27:22.211Z,9.37
2024-01-06T14:29:54.995Z,9.61
2024-01-06T14:32:28.479Z,9.81
2024-01-06T14:34:59.440Z,9.85
2024-01-06T14:37:30.294Z,9.97
2024-01-06T14:40:06.410Z,10.11
2024-01-06T14:42:37.847Z,10.25
2024-01-06T14:45:09.770Z,10.38
2024-01-06T14:47:43.411Z,10.53
2024-01-06T14:50:14.438Z,10.66
2024-01-06T14:52:45.102Z,10.78
2024-01-06T14:55:16.371Z,10.86
2024-01-06T14:57:47.616Z,10.97
2024-01-06T15:00:19.733Z,11.02
2024-01-06T15:02:53.858Z,11.11
2024-01-06T15:05:27.699Z,11.17
2024-01-06T15:07:59.085Z,11.23
2024-01-06T15:10:30.461Z,11.26
2024-01-06T15:13:01.915Z,11.30
2024-01-06T15:15:33.542Z,11.32
2024-01-06T15:18:07.830Z,11.33
2024-01-06T15:20:39.079Z,11.34
2024-01-06T15:23:10.420Z,11.35
2024-01-06T15:25:45.631Z,11.35
2024-01-06T15:28:17.716Z,11.35
2024-01-06T15:30:49.037Z,11.33
2024-01-06T15:33:29.108Z,11.37
2024-01-06T15:36:00.617Z,11.33
2024-01-06T15:38:32.006Z,11.34
2024-01-06T15:41:05.659Z,11.30
2024-01-06T15:43:39.196Z,11.12
2024-01-06T15:46:10.051Z,11.06
2024-01-06T15:48:43.473Z,10.61
2024-01-06T15:51:14.198Z,10.06
2024-01-06T15:53:44.900Z,9.61
2024-01-06T15:56:15.542Z,9.52
2024-01-06T15:58:46.233Z,9.52
2024-01-06T16:01:17.109Z,9.61
2024-01-06T16:03:50.795Z,9.74
2024-01-06T16:06:22.624Z,9.87
2024-01-06T16:08:53.497Z,10.03
2024-01-06T16:11:24.204Z,10.17
2024-01-06T16:13:55.277Z,10.30
2024-01-06T16:16:25.937Z,10.42
2024-01-06T16:18:59.577Z,10.53
2024-01-06T16:21:31.262Z,10.63
2024-01-06T16:24:02.030Z,10.69
2024-01-06T16:26:32.948Z,10.75
2024-01-06T16:29:03.829Z,10.80
2024-01-06T16:31:34.763Z,10.85
2024-01-06T16:34:08.334Z,10.90
2024-01-06T16:36:39.175Z,10.94
2024-01-06T16:39:10.374Z,10.97
2024-01-06T16:41:41.058Z,10.99
2024-01-06T16:44:11.838Z,11.02
2024-01-06T16:46:42.684Z,10.97
2024-01-06T16:49:16.152Z,10.92
2024-01-06T16:51:47.215Z,10.85
2024-01-06T16:54:18.108Z,10.50
2024-01-06T16:56:48.950Z,9.99
2024-01-06T16:59:19.752Z,9.59
2024-01-06T17:01:50.724Z,9.33
2024-01-06T17:04:24.496Z,9.20
2024-01-06T17:06:56.599Z,9.15
2024-01-06T17:09:29.426Z,9.14
2024-01-06T17:12:00.409Z,9.14
2024-01-06T17:14:31.233Z,9.15
2024-01-06T17:17:01.980Z,9.17
2024-01-06T17:19:36.052Z,9.18
2024-01-06T17:22:07.125Z,9.29
2024-01-06T17:24:38.604Z,9.43
2024-01-06T17:27:09.869Z,9.60
2024-01-06T17:29:40.589Z,9.77
2024-01-06T17:32:15.749Z,9.94
2024-01-06T17:34:51.825Z,10.08
2024-01-06T17:37:22.923Z,10.22
2024-01-06T17:39:53.762Z,10.34
2024-01-06T17:42:25.867Z,10.46
2024-01-06T17:44:56.880Z,10.55
2024-01-06T17:47:27.649Z,10.65
2024-01-06T17:50:01.290Z,10.72
2024-01-06T17:52:32.285Z,10.79
2024-01-06T17:55:03.865Z,10.86
2024-01-06T17:57:36.375Z,10.92
2024-01-06T18:00:10.523Z,10.96
2024-01-06T18:02:41.670Z,10.98
2024-01-06T18:05:15.760Z,10.69
2024-01-06T18:07:46.668Z,10.19
2024-01-06T18:10:17.465Z,9.79
2024-01-06T18:12:49.138Z,9.53
2024-01-06T18:15:20.301Z,9.40
2024-01-06T18:17:51.187Z,9.37
2024-01-06T18:20:25.174Z,9.34
2024-01-06T18:22:56.079Z,9.35
2024-01-06T18:25:26.903Z,9.37
2024-01-06T18:27:57.879Z,9.36
2024-01-06T18:30:28.697Z,9.36
2024-01-06T18:33:01.823Z,9.32
2024-01-06T18:35:35.141Z,9.32
2024-01-06T18:38:05.841Z,9.33
2024-01-06T18:40:36.513Z,9.32
2024-01-06T18:43:07.686Z,9.31
2024-01-06T18:45:38.492Z,9.31
2024-01-06T18:48:12.261Z,9.42
2024-01-06T18:50:47.910Z,9.53
2024-01-06T18:53:19.723Z,9.43
2024-01-06T18:55:50.602Z,9.30
2024-01-06T18:58:21.816Z,9.29
2024-01-06T19:00:52.690Z,9.39
2024-01-06T19:03:23.504Z,9.54
2024-01-06T19:05:57.037Z,9.70
2024-01-06T19:08:28.058Z,9.86
2024-01-06T19:10:59.090Z,10.04
2024-01-06T19:13:30.438Z,10.19
2024-01-06T19:16:01.696Z,10.25
2024-01-06T19:18:33.104Z,10.40
2024-01-06T19:21:08.410Z,10.51
2024-01-06T19:23:39.495Z,10.54
2024-01-06T19:26:13.532Z,10.67
2024-01-06T19:28:44.260Z,10.73
2024-01-06T19:31:15.060Z,10.77
2024-01-06T19:33:46.451Z,10.80
2024-01-06T19:36:19.901Z,10.84
2024-01-06T19:38:50.666Z,10.80
2024-01-06T19:41:21.478Z,10.90
2024-01-06T19:43:52.193Z,10.94
2024-01-06T19:46:22.925Z,10.96
2024-01-06T19:48:53.708Z,10.97
2024-01-06T19:51:28.552Z,10.99
2024-01-06T19:53:59.215Z,11.01
2024-01-06T19:56:29.951Z,11.01
2024-01-06T19:59:00.711Z,11.02
2024-01-06T20:01:31.491Z,11.04
2024-01-06T20:04:02.379Z,11.07
2024-01-06T20:06:35.992Z,11.09
2024-01-06T20:09:08.047Z,11.11
2024-01-06T20:11:38.869Z,11.11
2024-01-06T20:14:10.042Z,11.04
2024-01-06T20:16:40.792Z,10.97
2024-01-06T20:19:11.821Z,10.93
2024-01-06T20:21:45.381Z,10.89
2024-01-06T20:24:16.320Z,10.85
2024-01-06T20:26:47.076Z,10.85
2024-01-06T20:29:17.945Z,10.86
2024-01-06T20:31:48.931Z,10.89
2024-01-06T20:34:19.872Z,10.88
2024-01-06T20:36:53.302Z,10.88
2024-01-06T20:39:24.100Z,10.85
2024-01-06T20:41:54.949Z,10.84
2024-01-06T20:44:25.777Z,10.87
2024-01-06T20:46:56.672Z,10.91
2024-01-06T20:49:29.760Z,10.91
2024-01-06T20:52:04.452Z,10.94
2024-01-06T20:54:35.095Z,10.95
2024-01-06T20:57:06.200Z,10.95
2024-01-06T20:59:36.881Z,10.93
2024-01-06T21:02:07.980Z,10.94
2024-01-06T21:04:38.656Z,10.96
2024-01-06T21:07:12.017Z,10.99
2024-01-06T21:09:42.794Z,10.97
2024-01-06T21:12:13.519Z,10.99
2024-01-06T21:14:44.175Z,10.94
2024-01-06T21:17:14.888Z,10.97
2024-01-06T21:19:46.350Z,11.00
2024-01-06T21:22:20.789Z,11.05
2024-01-06T21:24:51.703Z,11.03
2024-01-06T21:27:22.634Z,11.06
2024-01-06T21:29:53.413Z,11.09
2024-01-06T21:32:24.116Z,11.11
2024-01-06T21:34:54.999Z,11.10
2024-01-06T21:37:29.398Z,11.10
2024-01-06T21:40:05.721Z,11.10
2024-01-06T21:42:36.584Z,11.15
2024-01-06T21:45:08.056Z,11.10
2024-01-06T21:47:40.243Z,11.11
2024-01-06T21:50:12.679Z,11.15
2024-01-06T21:52:47.204Z,11.19
2024-01-06T21:55:18.671Z,11.26
2024-01-06T21:57:49.461Z,11.33
2024-01-06T22:00:21.223Z,11.38
2024-01-06T22:02:52.989Z,11.43
2024-01-06T22:05:24.049Z,11.48
2024-01-06T22:07:57.366Z,11.48
2024-01-06T22:10:33.878Z,11.54
2024-01-06T22:13:05.767Z,11.54
2024-01-06T22:15:36.896Z,11.59
2024-01-06T22:18:08.071Z,11.61
2024-01-06T22:20:38.935Z,11.66
2024-01-06T22:23:12.181Z,11.62
2024-01-06T22:25:42.801Z,11.62
2024-01-06T22:28:15.565Z,11.64
2024-01-06T22:30:46.445Z,11.66
2024-01-06T22:33:18.530Z,11.64
2024-01-06T22:35:49.451Z,11.68
2024-01-06T22:38:22.715Z,11.69
2024-01-06T22:40:53.894Z,11.62
2024-01-06T22:43:24.615Z,11.62
2024-01-06T22:45:55.395Z,11.55
2024-01-06T22:48:26.268Z,11.48
2024-01-06T22:50:57.426Z,11.46
2024-01-06T22:53:30.797Z,11.43
2024-01-06T22:56:01.526Z,11.43
2024-01-06T22:58:34.415Z,11.45
2024-01-06T23:01:07.115Z,11.46
2024-01-06T23:03:39.178Z,11.44
2024-01-06T23:06:10.130Z,11.42
2024-01-06T23:08:44.978Z,11.29
2024-01-06T23:11:17.585Z,11.26
2024-01-06T23:13:48.299Z,11.22
2024-01-06T23:16:19.782Z,11.21
2024-01-06T23:18:50.658Z,11.19
2024-01-06T23:21:21.633Z,11.20
2024-01-06T23:23:54.918Z,11.22
2024-01-06T23:26:25.603Z,11.26
2024-01-06T23:28:56.328Z,11.25
2024-01-06T23:31:27.051Z,11.13
2024-01-06T23:33:58.162Z,11.03
2024-01-06T23:36:29.015Z,11.01
2024-01-06T23:39:02.302Z,10.97
2024-01-06T23:41:32.956Z,11.02
2024-01-06T23:44:03.605Z,11.07
2024-01-06T23:46:34.724Z,11.14
2024-01-06T23:49:05.462Z,11.19
2024-01-06T23:51:36.218Z,11.27
2024-01-06T23:54:09.692Z,11.21
2024-01-06T23:56:40.338Z,11.24
2024-01-06T23:59:11.063Z,11.19
